Time;durP1;ratioP1;P1;durP2;ratioP2;P2;SDS_P1;SDS_P2;PMS_P1;PMS_P2;Temp;Humidity;BMP_temperature;BMP_pressure;BME280_temperature;BME280_humidity;BME280_pressure;Samples;Min_cycle;Max_cycle;Signal;HPM_P1;HPM_P2
2022/07/27 00:00:52;;;;;;;2.00;1.90;;;;;;;20.60;88.69;100250.94;4983460;28;20284;-77
2022/07/27 00:03:18;;;;;;;2.07;1.90;;;;;;;20.57;87.98;100251.97;4980788;28;20757;-77
2022/07/27 00:05:43;;;;;;;2.47;1.80;;;;;;;20.58;87.98;100248.41;4986235;28;20660;-77
2022/07/27 00:08:09;;;;;;;2.07;1.87;;;;;;;20.56;88.37;100253.75;4989931;28;20274;-76
2022/07/27 00:10:36;;;;;;;2.30;1.70;;;;;;;20.56;88.98;100252.88;4987179;28;20691;-77
2022/07/27 00:13:03;;;;;;;2.63;2.10;;;;;;;20.54;89.37;100258.22;4985954;28;20189;-77
2022/07/27 00:15:28;;;;;;;2.60;2.03;;;;;;;20.52;89.66;100256.59;4987041;28;20231;-77
2022/07/27 00:17:55;;;;;;;2.10;1.90;;;;;;;20.49;90.17;100252.34;4986352;28;20215;-77
2022/07/27 00:20:21;;;;;;;2.10;2.00;;;;;;;20.49;90.68;100254.16;4987585;28;20212;-78
2022/07/27 00:22:46;;;;;;;3.80;1.97;;;;;;;20.49;91.55;100248.88;4989750;28;20246;-77
2022/07/27 00:25:12;;;;;;;3.07;2.07;;;;;;;20.48;92.37;100250.66;4992214;28;20204;-76
2022/07/27 00:27:37;;;;;;;2.40;2.20;;;;;;;20.46;92.10;100254.28;4990098;28;20599;-77
2022/07/27 00:30:03;;;;;;;7.47;2.57;;;;;;;20.41;91.86;100252.75;4989031;28;20231;-75
2022/07/27 00:32:28;;;;;;;2.47;2.27;;;;;;;20.39;91.36;100256.38;4988295;28;20719;-77
2022/07/27 00:34:54;;;;;;;2.20;2.00;;;;;;;20.39;91.20;100257.22;4987120;28;20323;-78
2022/07/27 00:37:19;;;;;;;2.10;2.00;;;;;;;20.38;90.50;100252.88;4982895;28;20569;-76
2022/07/27 00:39:46;;;;;;;2.60;2.40;;;;;;;20.40;90.67;100258.09;4982053;28;20236;-77
2022/07/27 00:42:11;;;;;;;2.63;2.43;;;;;;;20.40;90.59;100253.66;4986794;28;20723;-76
2022/07/27 00:44:40;;;;;;;2.63;2.17;;;;;;;20.40;90.26;100256.28;4984228;28;20200;-76
2022/07/27 00:47:05;;;;;;;2.23;2.03;;;;;;;20.38;89.60;100258.16;4987726;28;20603;-76
2022/07/27 00:49:31;;;;;;;2.03;1.93;;;;;;;20.37;88.90;100255.63;4983236;28;20216;-76
2022/07/27 00:51:56;;;;;;;2.53;2.33;;;;;;;20.35;88.43;100255.66;4986548;28;20266;-73
2022/07/27 00:54:22;;;;;;;2.23;1.97;;;;;;;20.34;88.13;100254.00;4989973;28;21147;-76
2022/07/27 00:56:48;;;;;;;2.60;2.40;;;;;;;20.38;89.47;100252.06;4985614;28;20216;-74
2022/07/27 00:59:14;;;;;;;3.63;2.20;;;;;;;20.40;90.50;100251.03;4990413;28;20219;-75
2022/07/27 01:01:40;;;;;;;2.80;2.60;;;;;;;20.43;91.05;100255.28;4985904;28;20206;-76
2022/07/27 01:04:06;;;;;;;2.80;2.60;;;;;;;20.43;91.42;100246.56;4996982;28;20283;-77
2022/07/27 01:06:33;;;;;;;2.50;2.33;;;;;;;20.39;91.10;100248.50;4986545;28;20304;-76
2022/07/27 01:11:44;;;;;;;2.87;2.67;;;;;;;20.34;90.50;100250.50;4983709;28;20229;-77
2022/07/27 01:14:12;;;;;;;2.50;2.30;;;;;;;20.32;90.57;100247.97;5000822;28;20242;-79
2022/07/27 01:16:38;;;;;;;3.07;2.77;;;;;;;20.30;90.45;100244.56;4985478;28;20215;-74
2022/07/27 01:19:08;;;;;;;3.30;2.47;;;;;;;20.27;90.58;100239.44;4980216;28;20215;-77
2022/07/27 01:21:34;;;;;;;3.00;2.63;;;;;;;20.26;90.15;100240.38;4984616;28;20196;-76
2022/07/27 01:24:00;;;;;;;3.37;2.83;;;;;;;20.24;90.45;100236.97;4984002;28;20220;-76
2022/07/27 01:26:27;;;;;;;2.60;2.40;;;;;;;20.22;90.50;100238.81;4992662;28;20188;-76
2022/07/27 01:28:57;;;;;;;3.73;2.50;;;;;;;20.19;90.38;100242.47;4993191;28;20267;-77
2022/07/27 01:31:22;;;;;;;3.40;2.40;;;;;;;20.15;90.49;100233.03;4985289;28;20220;-77
2022/07/27 01:33:47;;;;;;;3.20;2.83;;;;;;;20.10;90.63;100243.75;4987726;28;20196;-76
2022/07/27 01:36:13;;;;;;;2.50;2.30;;;;;;;20.10;90.92;100233.25;4986243;28;20730;-77
2022/07/27 01:38:38;;;;;;;2.90;2.40;;;;;;;20.08;91.37;100235.09;4986258;28;20226;-76
2022/07/27 01:41:04;;;;;;;2.70;2.50;;;;;;;20.06;91.43;100231.69;4985480;28;20193;-76
2022/07/27 01:43:29;;;;;;;2.57;2.43;;;;;;;20.03;91.51;100231.88;4985196;28;20279;-76
2022/07/27 01:45:55;;;;;;;2.77;2.57;;;;;;;20.00;91.30;100229.41;4983729;28;20200;-76
2022/07/27 01:48:23;;;;;;;2.50;2.30;;;;;;;19.95;91.68;100232.25;4987470;28;20188;-76
2022/07/27 01:50:49;;;;;;;3.17;2.67;;;;;;;19.94;91.78;100234.94;4999757;28;20293;-76
2022/07/27 01:53:15;;;;;;;3.23;2.93;;;;;;;19.91;91.84;100233.31;4989283;28;20231;-75
2022/07/27 01:55:40;;;;;;;3.90;2.90;;;;;;;19.89;91.80;100227.28;4990248;28;20200;-76
2022/07/27 01:58:06;;;;;;;5.07;2.67;;;;;;;19.86;92.33;100229.19;4990976;28;20283;-75
2022/07/27 02:00:33;;;;;;;2.73;2.53;;;;;;;19.82;93.01;100225.00;4990013;28;20771;-75
2022/07/27 02:02:58;;;;;;;2.60;2.40;;;;;;;19.76;93.39;100224.38;4989618;28;20194;-76
2022/07/27 02:05:24;;;;;;;5.07;3.00;;;;;;;19.72;94.06;100214.97;4989834;28;20191;-76
2022/07/27 02:07:51;;;;;;;2.87;2.63;;;;;;;19.68;94.47;100220.41;4985558;28;20228;-74
2022/07/27 02:10:16;;;;;;;3.33;2.80;;;;;;;19.64;94.67;100212.72;4986678;28;20220;-75
2022/07/27 02:12:42;;;;;;;3.17;2.80;;;;;;;19.61;95.24;100215.47;4990165;28;20212;-76
2022/07/27 02:15:13;;;;;;;2.80;2.57;;;;;;;19.59;95.99;100219.06;4988883;28;20370;-76
2022/07/27 02:17:39;;;;;;;2.80;2.60;;;;;;;19.54;96.25;100213.22;4985286;28;20196;-74
2022/07/27 02:20:07;;;;;;;3.13;2.93;;;;;;;19.48;96.70;100211.75;4988920;28;20236;-75
2022/07/27 02:22:33;;;;;;;2.90;2.70;;;;;;;19.41;97.03;100216.44;4997957;28;20194;-74
2022/07/27 02:24:58;;;;;;;2.73;2.53;;;;;;;19.35;97.21;100206.22;4985712;28;20340;-76
2022/07/27 02:27:24;;;;;;;3.07;2.87;;;;;;;19.31;97.50;100215.13;4982154;28;20196;-75
2022/07/27 02:29:50;;;;;;;3.00;2.80;;;;;;;19.27;97.96;100213.59;4986861;28;20288;-75
2022/07/27 02:32:15;;;;;;;3.50;3.20;;;;;;;19.23;98.52;100215.50;4984408;28;20190;-75
2022/07/27 02:34:41;;;;;;;3.03;2.80;;;;;;;19.19;98.85;100211.34;4986634;28;20203;-75
2022/07/27 02:37:07;;;;;;;3.10;2.90;;;;;;;19.18;99.19;100215.72;4989712;28;20709;-74
2022/07/27 02:39:32;;;;;;;4.33;3.17;;;;;;;19.17;99.03;100214.00;4992631;28;20215;-75
2022/07/27 02:41:57;;;;;;;3.20;3.00;;;;;;;19.16;99.26;100214.94;4989287;28;20613;-74
2022/07/27 02:44:22;;;;;;;3.13;2.90;;;;;;;19.15;98.97;100217.63;4990787;28;20256;-77
2022/07/27 02:46:48;;;;;;;3.27;3.07;;;;;;;19.13;99.24;100214.22;4987929;28;20209;-75
2022/07/27 02:49:14;;;;;;;2.97;2.77;;;;;;;19.11;99.82;100216.06;4985884;28;20208;-75
2022/07/27 02:51:40;;;;;;;2.87;2.70;;;;;;;19.10;100.00;100223.09;4988744;28;20294;-77
2022/07/27 02:54:06;;;;;;;3.10;2.87;;;;;;;19.08;100.00;100216.19;4989088;28;20559;-75
2022/07/27 02:56:31;;;;;;;3.40;3.17;;;;;;;19.03;100.00;100211.16;4987223;28;20194;-77
2022/07/27 02:58:56;;;;;;;3.33;3.07;;;;;;;18.98;100.00;100215.78;4986163;28;20211;-75
2022/07/27 03:01:22;;;;;;;3.60;2.87;;;;;;;18.94;100.00;100222.06;4987037;28;20228;-75
2022/07/27 03:03:47;;;;;;;3.27;3.07;;;;;;;18.90;100.00;100218.72;4990569;28;21014;-75
2022/07/27 03:06:13;;;;;;;3.10;2.90;;;;;;;18.87;100.00;100218.84;4986753;28;20190;-75
2022/07/27 03:08:38;;;;;;;3.23;2.90;;;;;;;18.84;100.00;100222.44;4984184;28;20238;-75
2022/07/27 03:11:04;;;;;;;3.33;3.13;;;;;;;18.81;100.00;100219.97;4988837;28;20216;-73
2022/07/27 03:13:30;;;;;;;3.20;3.00;;;;;;;18.80;100.00;100223.53;4984884;28;20191;-73
2022/07/27 03:15:56;;;;;;;2.83;2.63;;;;;;;18.80;100.00;100225.28;4987501;28;20188;-74
2022/07/27 03:18:24;;;;;;;3.00;2.80;;;;;;;18.82;100.00;100224.31;4989524;28;20212;-74
2022/07/27 03:20:49;;;;;;;2.80;2.70;;;;;;;18.83;100.00;100227.78;4986474;28;20180;-75
2022/07/27 03:23:16;;;;;;;3.20;3.00;;;;;;;18.86;100.00;100232.88;4991956;28;20259;-75
2022/07/27 03:25:42;;;;;;;3.20;3.00;;;;;;;18.89;100.00;100235.38;5002215;28;20203;-76
2022/07/27 03:28:07;;;;;;;3.30;3.10;;;;;;;18.91;100.00;100230.88;4988794;28;20282;-74
2022/07/27 03:30:33;;;;;;;2.97;2.77;;;;;;;18.94;100.00;100236.03;4989331;28;20240;-75
2022/07/27 03:32:58;;;;;;;3.23;3.03;;;;;;;18.96;100.00;100236.81;4987108;28;20649;-75
2022/07/27 03:35:23;;;;;;;3.50;3.30;;;;;;;18.98;100.00;100236.78;4984348;28;20196;-75
2022/07/27 03:37:49;;;;;;;3.13;2.93;;;;;;;18.98;100.00;100234.16;4986616;28;20209;-75
2022/07/27 03:40:14;;;;;;;3.07;2.87;;;;;;;18.98;100.00;100229.75;4987663;28;20207;-75
2022/07/27 03:42:40;;;;;;;3.20;3.00;;;;;;;18.98;100.00;100240.22;4984788;28;20546;-75
2022/07/27 03:45:06;;;;;;;3.37;3.17;;;;;;;18.98;100.00;100242.00;4993058;28;20334;-73
2022/07/27 03:47:32;;;;;;;3.40;3.13;;;;;;;18.98;100.00;100242.00;4987771;28;20281;-74
2022/07/27 03:49:57;;;;;;;3.10;2.90;;;;;;;18.96;100.00;100242.06;4984744;28;21121;-74
2022/07/27 03:52:22;;;;;;;3.50;3.20;;;;;;;18.94;100.00;100236.03;4986556;28;20202;-76
2022/07/27 03:54:48;;;;;;;3.20;3.00;;;;;;;18.95;100.00;100244.75;4986204;28;20193;-75
2022/07/27 03:57:13;;;;;;;3.20;3.00;;;;;;;18.94;100.00;100240.41;4987634;28;20282;-76
2022/07/27 03:59:39;;;;;;;3.30;3.00;;;;;;;18.92;100.00;100237.00;4987188;28;20692;-75
2022/07/27 04:02:04;;;;;;;3.30;3.10;;;;;;;18.94;100.00;100241.28;4991633;28;21173;-73
2022/07/27 04:04:30;;;;;;;3.20;3.00;;;;;;;18.96;100.00;100244.69;4986237;28;20288;-75
2022/07/27 04:06:56;;;;;;;3.40;3.20;;;;;;;18.98;100.00;100240.22;4986967;28;20203;-74
2022/07/27 04:09:21;;;;;;;3.33;3.13;;;;;;;19.02;100.00;100241.81;4985183;28;20222;-74
2022/07/27 04:11:47;;;;;;;3.37;3.17;;;;;;;19.06;100.00;100237.25;4987272;28;20225;-75
2022/07/27 04:14:12;;;;;;;2.73;2.60;;;;;;;19.08;100.00;100231.94;4975775;28;20817;-75
2022/07/27 04:16:39;;;;;;;3.13;2.93;;;;;;;19.08;100.00;100232.81;4986918;28;20198;-75
2022/07/27 04:19:05;;;;;;;3.03;2.80;;;;;;;19.10;100.00;100230.09;4988184;28;20215;-74
2022/07/27 04:21:30;;;;;;;3.67;3.47;;;;;;;19.10;100.00;100230.09;4983071;28;20198;-76
2022/07/27 04:23:56;;;;;;;3.20;2.90;;;;;;;19.13;100.00;100232.59;4997497;28;20186;-75
2022/07/27 04:26:22;;;;;;;3.37;3.13;;;;;;;19.19;100.00;100221.81;4982303;28;20202;-76
2022/07/27 04:28:47;;;;;;;3.10;2.90;;;;;;;19.39;99.67;100233.16;4985998;28;20758;-76
2022/07/27 04:31:12;;;;;;;3.20;3.00;;;;;;;19.72;98.17;100230.72;4986128;28;20227;-76
2022/07/27 04:33:38;;;;;;;3.30;3.00;;;;;;;19.89;97.13;100232.53;4988283;28;21706;-74
2022/07/27 04:36:04;;;;;;;3.33;3.03;;;;;;;19.95;96.06;100228.75;4989068;28;20188;-75
2022/07/27 04:38:29;;;;;;;3.10;2.90;;;;;;;20.19;95.44;100236.38;4986914;28;20209;-75
2022/07/27 04:40:55;;;;;;;2.83;2.63;;;;;;;20.51;94.21;100234.72;4988324;28;20188;-75
2022/07/27 04:43:20;;;;;;;3.00;2.80;;;;;;;20.61;93.50;100237.72;4987458;28;20191;-76
2022/07/27 04:45:46;;;;;;;2.87;2.67;;;;;;;20.60;93.11;100240.44;4992837;28;20305;-76
2022/07/27 04:48:11;;;;;;;2.90;2.70;;;;;;;20.62;93.17;100244.69;5001246;28;20196;-77
2022/07/27 04:50:42;;;;;;;3.00;2.80;;;;;;;20.66;93.17;100243.59;4988224;28;20245;-76
2022/07/27 04:53:09;;;;;;;3.07;2.70;;;;;;;20.65;93.52;100247.13;4985911;28;20231;-74
2022/07/27 04:55:40;;;;;;;3.37;2.90;;;;;;;20.64;93.99;100241.97;4987545;28;20180;-76
2022/07/27 04:58:06;;;;;;;2.97;2.77;;;;;;;20.63;94.14;100242.91;4986191;28;20235;-77
2022/07/27 05:00:31;;;;;;;2.73;2.53;;;;;;;20.67;93.93;100241.81;4981290;28;20243;-78
2022/07/27 05:02:57;;;;;;;2.80;2.60;;;;;;;20.75;93.97;100255.44;4984436;28;20196;-77
2022/07/27 05:05:22;;;;;;;3.03;2.80;;;;;;;20.83;94.04;100255.03;4986630;28;20188;-77
2022/07/27 05:07:47;;;;;;;2.87;2.67;;;;;;;20.87;93.92;100256.59;4984926;28;20184;-76
2022/07/27 05:10:13;;;;;;;3.03;2.70;;;;;;;20.89;93.87;100252.09;4986317;28;20208;-75
2022/07/27 05:12:38;;;;;;;3.00;2.80;;;;;;;20.93;93.22;100253.66;4988612;28;20186;-75
2022/07/27 05:15:04;;;;;;;2.83;2.63;;;;;;;21.04;92.60;100252.22;4986851;28;20257;-77
2022/07/27 05:17:30;;;;;;;2.87;2.67;;;;;;;21.21;91.38;100259.19;4985959;28;20194;-75
2022/07/27 05:19:55;;;;;;;2.47;2.30;;;;;;;21.30;90.81;100256.06;4983526;28;20201;-75
2022/07/27 05:22:20;;;;;;;2.27;2.17;;;;;;;21.32;90.69;100262.13;4995183;28;20566;-75
2022/07/27 05:24:46;;;;;;;2.53;2.33;;;;;;;21.29;90.26;100271.00;4985611;28;20190;-78
2022/07/27 05:27:12;;;;;;;2.87;2.40;;;;;;;21.20;90.24;100268.00;4988320;28;20281;-77
2022/07/27 05:29:37;;;;;;;3.37;2.53;;;;;;;21.06;90.11;100268.78;4987828;28;20367;-77
2022/07/27 05:32:03;;;;;;;2.87;2.67;;;;;;;20.93;89.87;100269.44;4991168;28;20217;-77
2022/07/27 05:34:32;;;;;;;2.90;2.70;;;;;;;20.88;90.31;100270.56;4990406;28;20258;-78
2022/07/27 05:36:57;;;;;;;3.20;3.00;;;;;;;20.85;90.45;100279.47;4989128;28;20181;-78
2022/07/27 05:39:23;;;;;;;2.70;2.50;;;;;;;20.85;90.29;100277.72;4989740;28;20707;-77
2022/07/27 05:41:48;;;;;;;2.83;2.60;;;;;;;20.89;90.40;100272.28;4991785;28;20560;-77
2022/07/27 05:44:14;;;;;;;2.70;2.50;;;;;;;20.91;90.31;100275.69;4990529;28;20551;-78
2022/07/27 05:46:39;;;;;;;2.90;2.47;;;;;;;20.92;89.94;100272.13;4988370;28;20212;-77
2022/07/27 05:49:05;;;;;;;2.10;1.90;;;;;;;20.96;89.88;100277.13;4988083;28;20266;-77
2022/07/27 05:51:30;;;;;;;2.83;2.23;;;;;;;21.04;89.61;100276.72;4984024;28;20864;-77
2022/07/27 05:53:57;;;;;;;2.40;2.20;;;;;;;21.12;89.38;100281.59;4976929;28;20729;-78
2022/07/27 05:56:26;;;;;;;2.17;2.07;;;;;;;21.19;88.82;100271.56;4987415;28;20344;-77
2022/07/27 05:58:52;;;;;;;2.40;2.17;;;;;;;21.31;88.11;100278.84;4987168;28;20203;-77
2022/07/27 06:01:18;;;;;;;2.40;2.20;;;;;;;21.46;87.39;100278.00;4989430;28;20639;-77
2022/07/27 06:03:43;;;;;;;2.23;2.07;;;;;;;21.59;87.02;100279.94;4990309;28;20221;-78
2022/07/27 06:08:53;;;;;;;2.53;2.20;;;;;;;21.68;86.64;100287.38;4989429;28;20742;-77
2022/07/27 06:11:18;;;;;;;1.77;1.67;;;;;;;21.65;86.35;100297.22;4987778;28;20212;-77
2022/07/27 06:13:44;;;;;;;2.50;1.90;;;;;;;21.58;86.26;100296.69;4987041;28;20243;-77
2022/07/27 06:16:09;;;;;;;2.87;1.93;;;;;;;21.50;86.63;100297.09;4988953;28;20196;-77
2022/07/27 06:18:35;;;;;;;2.40;2.10;;;;;;;21.43;86.60;100301.00;4990935;28;20740;-77
2022/07/27 06:21:01;;;;;;;2.20;2.00;;;;;;;21.45;87.00;100301.75;4995118;28;22045;-77
2022/07/27 06:23:28;;;;;;;2.53;1.63;;;;;;;21.49;86.60;100305.94;4987521;28;20193;-77
2022/07/27 06:25:54;;;;;;;3.43;1.87;;;;;;;21.48;86.53;100309.50;4989648;28;20265;-76
2022/07/27 06:28:19;;;;;;;2.07;1.60;;;;;;;21.47;86.24;100299.91;4988750;28;20263;-77
2022/07/27 06:30:46;;;;;;;4.13;1.60;;;;;;;21.51;86.59;100306.69;4991075;28;20212;-77
2022/07/27 06:33:12;;;;;;;3.33;1.90;;;;;;;21.66;86.18;100307.66;4993319;28;20209;-76
2022/07/27 06:35:38;;;;;;;3.40;1.80;;;;;;;21.85;85.92;100304.00;4989077;28;20185;-76
2022/07/27 06:38:03;;;;;;;2.30;1.50;;;;;;;21.90;85.60;100297.53;4988785;28;20184;-76
2022/07/27 06:40:28;;;;;;;1.40;1.30;;;;;;;21.99;85.26;100295.34;4991249;28;20243;-77
2022/07/27 06:42:54;;;;;;;1.43;1.33;;;;;;;22.05;85.15;100300.25;4993567;28;20251;-77
2022/07/27 06:45:20;;;;;;;2.23;1.47;;;;;;;21.98;84.97;100312.09;4989657;28;20277;-77
2022/07/27 06:47:47;;;;;;;2.77;1.70;;;;;;;21.96;84.70;100300.78;4990779;28;20196;-76
2022/07/27 06:50:13;;;;;;;3.77;2.17;;;;;;;21.77;84.68;100302.66;4988475;28;20304;-76
2022/07/27 06:52:38;;;;;;;3.50;1.60;;;;;;;21.71;85.10;100303.00;4989140;28;20546;-76
2022/07/27 06:55:04;;;;;;;2.37;1.60;;;;;;;21.51;85.49;100305.84;4990475;28;20239;-76
2022/07/27 06:57:29;;;;;;;2.03;1.60;;;;;;;21.47;86.08;100306.03;4989404;28;20674;-76
2022/07/27 06:59:55;;;;;;;3.90;1.73;;;;;;;21.69;85.60;100301.41;4988466;28;20213;-77
2022/07/27 07:02:20;;;;;;;1.50;1.40;;;;;;;22.81;82.55;100303.81;4989286;28;20184;-77
2022/07/27 07:04:46;;;;;;;1.50;1.40;;;;;;;24.02;78.86;100299.84;5000186;28;20190;-76
2022/07/27 07:07:11;;;;;;;1.50;1.40;;;;;;;24.92;76.71;100306.28;4982916;28;20685;-76
2022/07/27 07:09:36;;;;;;;1.90;1.40;;;;;;;25.76;73.66;100306.56;4989860;28;20233;-77
2022/07/27 07:12:02;;;;;;;3.00;1.57;;;;;;;26.34;71.63;100305.88;4989163;28;20209;-77
2022/07/27 07:14:27;;;;;;;2.40;1.70;;;;;;;27.05;69.65;100304.97;4987895;28;20189;-76
2022/07/27 07:16:53;;;;;;;2.40;1.20;;;;;;;27.81;67.56;100305.13;4990003;28;20660;-76
2022/07/27 07:19:19;;;;;;;1.90;1.50;;;;;;;28.20;67.04;100309.13;4986724;28;20536;-77
2022/07/27 07:21:44;;;;;;;5.60;1.60;;;;;;;28.53;66.05;100305.44;5002575;28;20204;-76
2022/07/27 07:24:10;;;;;;;2.33;1.80;;;;;;;28.20;65.68;100302.00;4989108;28;20189;-77
2022/07/27 07:26:36;;;;;;;2.60;1.60;;;;;;;28.02;65.61;100299.00;4991091;28;20195;-76
2022/07/27 07:29:02;;;;;;;4.03;1.83;;;;;;;27.27;66.92;100312.09;4988140;28;20289;-77
2022/07/27 07:31:27;;;;;;;3.37;1.70;;;;;;;26.91;68.48;100306.91;4992975;28;20297;-76
2022/07/27 07:33:52;;;;;;;7.37;1.90;;;;;;;26.98;68.15;100307.25;4989006;28;20865;-77
2022/07/27 07:36:18;;;;;;;3.77;1.80;;;;;;;26.83;68.96;100300.47;4989197;28;20197;-76
2022/07/27 07:38:43;;;;;;;2.60;1.70;;;;;;;27.04;68.22;100297.97;4988929;28;20563;-77
2022/07/27 07:41:09;;;;;;;2.07;1.60;;;;;;;27.78;66.71;100299.19;4988636;28;20209;-76
2022/07/27 07:43:37;;;;;;;2.40;1.70;;;;;;;27.90;66.09;100292.03;4990136;28;20180;-77
2022/07/27 07:46:03;;;;;;;3.03;1.93;;;;;;;27.80;65.95;100297.28;4983098;28;20189;-76
2022/07/27 07:48:29;;;;;;;1.90;1.77;;;;;;;27.82;66.21;100285.56;4989593;28;20668;-76
2022/07/27 07:50:54;;;;;;;2.07;1.70;;;;;;;28.18;65.55;100287.97;4988975;28;20201;-77
2022/07/27 07:53:21;;;;;;;2.17;1.67;;;;;;;28.25;65.24;100283.81;4988256;28;20193;-77
2022/07/27 07:55:46;;;;;;;3.10;1.60;;;;;;;27.42;66.41;100286.09;4986812;28;20204;-77
2022/07/27 07:58:12;;;;;;;3.47;2.10;;;;;;;26.94;68.00;100284.56;4993002;28;20661;-77
2022/07/27 08:00:37;;;;;;;2.30;1.83;;;;;;;26.76;68.31;100279.69;4983457;28;20249;-77
2022/07/27 08:03:03;;;;;;;2.27;2.07;;;;;;;27.10;67.56;100278.03;4987628;28;20196;-77
2022/07/27 08:05:31;;;;;;;1.90;1.63;;;;;;;27.23;67.45;100286.72;4986036;28;20204;-77
2022/07/27 08:07:57;;;;;;;2.70;1.60;;;;;;;27.34;67.57;100288.53;4985908;28;20630;-76
2022/07/27 08:10:22;;;;;;;15.10;2.00;;;;;;;27.41;67.25;100278.25;4985614;28;20213;-76
2022/07/27 08:12:51;;;;;;;3.90;1.40;;;;;;;27.21;67.32;100275.38;4984276;28;20708;-77
2022/07/27 08:15:17;;;;;;;1.50;1.33;;;;;;;27.32;67.56;100278.00;4986673;28;20732;-77
2022/07/27 08:17:43;;;;;;;2.10;1.90;;;;;;;27.04;67.15;100276.72;4985009;28;20215;-77
2022/07/27 08:20:10;;;;;;;2.10;1.73;;;;;;;27.34;66.43;100286.69;4987154;28;20196;-77
2022/07/27 08:22:35;;;;;;;1.87;1.60;;;;;;;27.56;66.12;100279.69;4986753;28;20571;-76
2022/07/27 08:25:01;;;;;;;11.03;2.20;;;;;;;27.08;67.12;100284.31;4985722;28;20192;-77
2022/07/27 08:27:27;;;;;;;3.73;1.77;;;;;;;27.28;67.17;100283.69;4984743;28;20263;-76
2022/07/27 08:29:53;;;;;;;3.07;1.40;;;;;;;27.53;66.87;100278.13;4986031;28;20335;-76
2022/07/27 08:32:19;;;;;;;2.87;1.33;;;;;;;27.72;65.65;100275.78;4985956;28;20192;-76
2022/07/27 08:34:44;;;;;;;2.17;1.40;;;;;;;27.14;66.11;100290.94;4984022;28;20667;-76
2022/07/27 08:37:09;;;;;;;5.60;1.80;;;;;;;26.51;68.00;100293.16;4999859;28;20275;-77
2022/07/27 08:39:35;;;;;;;2.73;1.67;;;;;;;26.40;68.34;100291.31;4986727;28;20295;-77
2022/07/27 08:42:04;;;;;;;2.97;1.53;;;;;;;26.42;68.01;100286.72;4985149;28;20177;-76
2022/07/27 08:44:30;;;;;;;1.70;1.53;;;;;;;26.22;68.58;100288.25;4985590;28;20184;-76
2022/07/27 08:46:58;;;;;;;2.27;1.50;;;;;;;26.11;69.14;100279.28;4979577;28;20191;-76
2022/07/27 08:49:26;;;;;;;1.73;1.27;;;;;;;25.96;69.33;100283.03;4984561;28;20212;-77
2022/07/27 08:51:52;;;;;;;2.20;1.30;;;;;;;25.76;69.53;100284.50;4998079;28;20203;-77
2022/07/27 08:54:18;;;;;;;2.90;1.43;;;;;;;25.59;70.23;100293.69;4982632;28;20185;-76
2022/07/27 08:56:43;;;;;;;1.63;1.40;;;;;;;25.45;70.94;100292.03;4988048;28;20264;-76
2022/07/27 08:59:08;;;;;;;4.87;1.80;;;;;;;25.07;71.80;100291.09;4998603;28;20621;-75
2022/07/27 09:01:35;;;;;;;4.33;1.60;;;;;;;24.84;72.80;100290.06;4986929;28;20197;-75
2022/07/27 09:04:00;;;;;;;1.30;1.20;;;;;;;24.79;72.59;100288.59;4985987;28;20274;-76
2022/07/27 09:06:40;;;;;;;2.57;1.30;;;;;;;24.61;73.03;100295.09;4987487;28;20886;-76
2022/07/27 09:09:05;;;;;;;3.00;1.63;;;;;;;24.23;73.85;100294.09;4985758;28;20209;-77
2022/07/27 09:11:31;;;;;;;4.20;1.90;;;;;;;23.94;74.89;100294.19;4986309;28;20711;-74
2022/07/27 09:14:04;;;;;;;2.30;1.50;;;;;;;24.03;75.17;100296.25;4984855;28;20178;-74
2022/07/27 09:16:30;;;;;;;2.03;1.47;;;;;;;23.97;74.69;100288.72;4984815;28;20189;-78
2022/07/27 09:19:07;;;;;;;3.17;1.50;;;;;;;24.10;74.82;100294.03;4986649;28;20217;-75
2022/07/27 09:21:35;;;;;;;2.30;1.60;;;;;;;24.28;73.84;100299.91;4977729;28;20239;-75
2022/07/27 09:24:14;;;;;;;3.20;1.33;;;;;;;24.64;73.39;100287.81;4985462;28;20552;-75
2022/07/27 09:26:40;;;;;;;3.17;1.60;;;;;;;25.03;72.20;100282.53;4987190;28;20188;-75
2022/07/27 09:29:11;;;;;;;1.73;1.40;;;;;;;25.22;72.00;100292.66;4986937;28;20688;-74
2022/07/27 09:31:54;;;;;;;2.37;1.80;;;;;;;25.53;70.36;100287.03;4987299;28;20218;-75
2022/07/27 09:34:27;;;;;;;1.40;1.30;;;;;;;25.97;70.05;100287.38;5000548;28;21190;-75
2022/07/27 09:36:54;;;;;;;1.97;1.40;;;;;;;26.20;69.39;100295.47;4981854;28;20195;-75
2022/07/27 09:39:21;;;;;;;3.70;1.53;;;;;;;26.23;69.74;100289.94;4984561;28;20205;-75
2022/07/27 09:41:50;;;;;;;2.43;1.40;;;;;;;25.86;69.97;100294.31;4984637;28;20311;-75
2022/07/27 09:44:16;;;;;;;4.20;1.63;;;;;;;25.76;70.75;100292.44;4984371;28;20320;-76
2022/07/27 09:46:43;;;;;;;5.00;1.83;;;;;;;25.51;71.11;100296.88;4986144;28;20239;-75
2022/07/27 09:49:31;;;;;;;4.53;1.70;;;;;;;25.22;72.37;100300.63;4982418;28;20232;-76
2022/07/27 09:51:58;;;;;;;2.57;1.60;;;;;;;25.03;72.78;100302.88;4986137;28;20244;-75
2022/07/27 09:54:24;;;;;;;5.10;1.73;;;;;;;25.06;72.61;100297.34;4999152;28;20209;-76
2022/07/27 09:57:01;;;;;;;5.87;1.90;;;;;;;24.81;72.58;100305.19;4985929;28;20177;-75
2022/07/27 09:59:28;;;;;;;1.50;1.40;;;;;;;24.86;72.68;100301.38;4986949;28;20691;-76
2022/07/27 10:01:55;;;;;;;2.50;1.60;;;;;;;24.97;72.85;100301.47;4986871;28;20235;-75
2022/07/27 10:04:22;;;;;;;2.70;1.60;;;;;;;25.05;72.56;100309.75;4981246;28;20177;-75
2022/07/27 10:06:48;;;;;;;1.70;1.43;;;;;;;24.98;72.47;100302.34;4979772;28;20178;-75
2022/07/27 10:09:13;;;;;;;2.27;1.87;;;;;;;25.01;72.53;100305.63;5001644;28;20220;-75
2022/07/27 10:11:39;;;;;;;4.07;1.60;;;;;;;25.02;72.35;100303.84;4989494;28;20228;-76
2022/07/27 10:14:05;;;;;;;2.90;1.87;;;;;;;25.13;72.42;100303.06;4988863;28;20177;-75
2022/07/27 10:16:32;;;;;;;4.10;1.90;;;;;;;25.20;71.81;100293.75;4991191;28;20208;-75
2022/07/27 10:19:25;;;;;;;2.27;1.33;;;;;;;25.46;70.96;100296.38;4989752;28;20215;-75
2022/07/27 10:21:50;;;;;;;2.93;1.40;;;;;;;25.62;70.55;100296.97;4988516;28;20563;-75
2022/07/27 10:24:31;;;;;;;4.17;2.10;;;;;;;26.02;70.14;100294.03;4984036;28;20244;-75
2022/07/27 10:26:57;;;;;;;2.80;1.40;;;;;;;26.25;69.55;100296.81;5004626;28;20197;-75
2022/07/27 10:29:23;;;;;;;4.90;2.07;;;;;;;26.61;68.08;100286.16;4988612;28;20217;-75
2022/07/27 10:31:59;;;;;;;2.33;1.60;;;;;;;26.55;67.85;100297.25;4989700;28;20565;-75
2022/07/27 10:34:42;;;;;;;4.13;1.67;;;;;;;26.03;68.71;100286.94;4987491;28;20556;-75
2022/07/27 10:37:15;;;;;;;1.40;1.27;;;;;;;26.39;68.05;100289.63;4989481;28;20220;-74
2022/07/27 10:39:42;;;;;;;3.07;1.40;;;;;;;26.35;67.79;100283.69;4982271;28;20205;-75
2022/07/27 10:42:34;;;;;;;3.17;1.80;;;;;;;26.38;68.28;100285.28;4988454;28;20193;-74
2022/07/27 10:45:11;;;;;;;3.43;1.50;;;;;;;25.87;67.71;100281.91;4982639;28;20201;-78
2022/07/27 10:47:43;;;;;;;1.60;1.50;;;;;;;26.09;67.92;100277.66;4989753;28;20195;-74
2022/07/27 10:50:15;;;;;;;1.53;1.43;;;;;;;26.12;67.91;100283.63;4988047;28;20236;-75
2022/07/27 10:52:44;;;;;;;4.17;1.73;;;;;;;26.29;67.10;100282.38;4988235;28;20676;-75
2022/07/27 10:55:28;;;;;;;3.33;1.60;;;;;;;26.22;67.43;100283.78;4990241;28;20236;-74
2022/07/27 10:57:55;;;;;;;3.83;1.40;;;;;;;25.90;67.51;100273.72;4981800;28;20204;-75
2022/07/27 11:00:49;;;;;;;2.10;1.67;;;;;;;25.85;67.87;100284.69;4987644;28;20302;-74
2022/07/27 11:03:22;;;;;;;4.73;1.70;;;;;;;26.12;66.17;100283.63;5003204;28;20195;-74
2022/07/27 11:06:02;;;;;;;1.97;1.60;;;;;;;26.25;66.59;100285.34;4984734;28;20185;-75
2022/07/27 11:08:31;;;;;;;2.77;1.60;;;;;;;26.39;66.13;100282.53;4989640;28;20181;-75
2022/07/27 11:10:58;;;;;;;2.80;1.70;;;;;;;26.54;66.06;100287.63;4987133;28;20716;-75
2022/07/27 11:13:25;;;;;;;2.80;1.87;;;;;;;26.51;65.65;100278.06;4989596;28;20557;-74
2022/07/27 11:16:01;;;;;;;3.47;1.80;;;;;;;26.51;65.26;100278.06;4989497;28;20272;-75
2022/07/27 11:18:28;;;;;;;2.20;1.57;;;;;;;26.47;65.77;100280.13;4969468;28;20656;-75
2022/07/27 11:21:16;;;;;;;3.97;1.90;;;;;;;26.59;65.26;100282.78;4986119;28;20201;-75
2022/07/27 11:23:42;;;;;;;4.57;1.77;;;;;;;26.66;65.23;100273.41;4983610;28;20194;-75
2022/07/27 11:26:08;;;;;;;2.33;1.47;;;;;;;26.52;65.05;100279.75;4989218;28;20192;-75
2022/07/27 11:28:35;;;;;;;1.67;1.50;;;;;;;26.72;64.78;100258.81;4989358;28;20660;-75